createdAt,value
2023-02-09T00:00:09.578Z,102831.75
2023-02-09T00:02:37.782Z,102839.78
2023-02-09T00:05:04.316Z,102837.41
2023-02-09T00:07:30.794Z,102823.16
2023-02-09T00:09:57.158Z,102827.94
2023-02-09T00:12:42.163Z,102828.22
2023-02-09T00:15:08.901Z,102824.50
2023-02-09T00:17:36.281Z,102830.16
2023-02-09T00:20:05.522Z,102830.41
2023-02-09T00:22:31.943Z,102829.56
2023-02-09T00:24:58.516Z,102839.56
2023-02-09T00:27:25.019Z,102832.50
2023-02-09T00:29:51.446Z,102830.09
2023-02-09T00:32:17.948Z,102823.56
2023-02-09T00:34:44.532Z,102829.81
2023-02-09T00:37:10.935Z,102812.50
2023-02-09T00:39:37.415Z,102817.25
2023-02-09T00:42:06.715Z,102810.72
2023-02-09T00:44:38.732Z,102823.31
2023-02-09T00:47:07.051Z,102823.44
2023-02-09T00:49:33.820Z,102826.06
2023-02-09T00:52:00.294Z,102815.91
2023-02-09T00:54:27.267Z,102824.66
2023-02-09T00:56:53.688Z,102829.41
2023-02-09T00:59:20.020Z,102827.13
2023-02-09T01:01:46.451Z,102829.22
2023-02-09T01:04:12.911Z,102831.38
2023-02-09T01:06:39.445Z,102829.69
2023-02-09T01:09:05.953Z,102835.88
2023-02-09T01:11:32.429Z,102819.28
2023-02-09T01:14:00.137Z,102828.88
2023-02-09T01:16:28.979Z,102814.97
2023-02-09T01:18:56.015Z,102813.69
2023-02-09T01:21:23.286Z,102813.41
2023-02-09T01:23:49.940Z,102820.72
2023-02-09T01:26:17.454Z,102813.94
2023-02-09T01:28:44.050Z,102817.75
2023-02-09T01:31:43.781Z,102811.34
2023-02-09T01:34:13.184Z,102812.16
2023-02-09T01:36:39.662Z,102813.25
2023-02-09T01:39:06.199Z,102816.31
2023-02-09T01:41:33.627Z,102809.84
2023-02-09T01:44:06.982Z,102806.81
2023-02-09T01:46:36.164Z,102808.75
2023-02-09T01:49:13.758Z,102813.25
2023-02-09T01:52:11.264Z,102809.00
2023-02-09T01:54:40.777Z,102805.69
2023-02-09T01:57:11.767Z,102809.59
2023-02-09T01:59:40.096Z,102806.31
2023-02-09T02:02:07.367Z,102813.69
2023-02-09T02:04:34.592Z,102819.75
2023-02-09T02:07:13.564Z,102806.16
2023-02-09T02:09:40.656Z,102813.19
2023-02-09T02:12:07.186Z,102805.63
2023-02-09T02:14:35.139Z,102806.41
2023-02-09T02:17:10.451Z,102798.38
2023-02-09T02:19:48.986Z,102800.22
2023-02-09T02:22:27.499Z,102809.16
2023-02-09T02:25:22.028Z,102800.84
2023-02-09T02:28:14.732Z,102804.84
2023-02-09T02:31:10.355Z,102797.53
2023-02-09T02:33:57.253Z,102799.63
2023-02-09T02:36:45.711Z,102796.75
2023-02-09T02:39:22.821Z,102794.47
2023-02-09T02:42:21.133Z,102796.50
2023-02-09T02:45:18.017Z,102800.41
2023-02-09T02:47:54.945Z,102795.56
2023-02-09T02:50:27.148Z,102800.78
2023-02-09T02:52:57.719Z,102793.75
2023-02-09T02:55:27.648Z,102792.97
2023-02-09T02:57:58.629Z,102793.56
2023-02-09T03:00:31.824Z,102804.09
2023-02-09T03:03:03.934Z,102797.06
2023-02-09T03:05:31.020Z,102794.66
2023-02-09T03:07:57.455Z,102802.16
2023-02-09T03:10:34.540Z,102798.38
2023-02-09T03:13:10.008Z,102792.31
2023-02-09T03:15:42.558Z,102787.09
2023-02-09T03:18:21.304Z,102791.94
2023-02-09T03:20:52.646Z,102795.06
2023-02-09T03:23:56.455Z,102794.06
2023-02-09T03:26:30.549Z,102786.81
2023-02-09T03:28:59.299Z,102785.63
2023-02-09T03:31:28.398Z,102789.72
2023-02-09T03:33:57.281Z,102791.94
2023-02-09T03:36:25.540Z,102790.22
2023-02-09T03:38:51.963Z,102786.81
2023-02-09T03:41:18.411Z,102798.22
2023-02-09T03:44:03.478Z,102793.88
2023-02-09T03:46:29.923Z,102794.59
2023-02-09T03:48:56.348Z,102792.06
2023-02-09T03:51:22.778Z,102798.00
2023-02-09T03:53:49.106Z,102791.41
2023-02-09T03:56:15.525Z,102796.75
2023-02-09T03:58:42.121Z,102789.00
2023-02-09T04:01:10.659Z,102786.81
2023-02-09T04:03:39.615Z,102782.72
2023-02-09T04:06:06.355Z,102790.50
2023-02-09T04:08:33.173Z,102783.72
2023-02-09T04:10:59.993Z,102768.91
2023-02-09T04:13:26.609Z,102769.16
2023-02-09T04:15:53.130Z,102769.88
2023-02-09T04:18:20.010Z,102768.06
2023-02-09T04:20:46.922Z,102764.44
2023-02-09T04:23:13.885Z,102767.53
2023-02-09T04:25:40.246Z,102763.84
2023-02-09T04:28:06.774Z,102765.56
2023-02-09T04:30:33.284Z,102771.63
2023-02-09T04:32:59.658Z,102758.19
2023-02-09T04:35:26.150Z,102761.59
2023-02-09T04:37:52.483Z,102759.31
2023-02-09T04:40:19.283Z,102753.59
2023-02-09T04:42:46.500Z,102753.03
2023-02-09T04:45:13.088Z,102755.44
2023-02-09T04:47:39.576Z,102751.94
2023-02-09T04:50:06.283Z,102747.72
2023-02-09T04:52:32.673Z,102747.34
2023-02-09T04:54:59.157Z,102741.03
2023-02-09T04:57:44.357Z,102747.13
2023-02-09T05:00:11.472Z,102739.50
2023-02-09T05:02:37.928Z,102729.78
2023-02-09T05:05:04.560Z,102733.19
2023-02-09T05:07:31.172Z,102739.00
2023-02-09T05:09:57.512Z,102734.63
2023-02-09T05:12:23.947Z,102728.75
2023-02-09T05:14:50.359Z,102730.47
2023-02-09T05:17:20.886Z,102736.75
2023-02-09T05:19:48.215Z,102733.63
2023-02-09T05:22:15.351Z,102730.22
2023-02-09T05:24:41.749Z,102728.28
2023-02-09T05:27:08.125Z,102724.03
2023-02-09T05:29:34.697Z,102731.00
2023-02-09T05:32:01.103Z,102736.94
2023-02-09T05:34:27.479Z,102724.28
2023-02-09T05:36:53.931Z,102717.03
2023-02-09T05:39:20.471Z,102717.63
2023-02-09T05:42:05.189Z,102717.88
2023-02-09T05:44:31.592Z,102732.81
2023-02-09T05:46:57.962Z,102733.06
2023-02-09T05:49:24.481Z,102728.94
2023-02-09T05:51:51.101Z,102734.88
2023-02-09T05:54:17.602Z,102737.81
2023-02-09T05:56:44.520Z,102734.53
2023-02-09T05:59:10.885Z,102730.78
2023-02-09T06:01:37.486Z,102733.44
2023-02-09T06:04:04.091Z,102740.47
2023-02-09T06:06:30.402Z,102744.13
2023-02-09T06:08:56.896Z,102751.44
2023-02-09T06:11:23.364Z,102752.66
2023-02-09T06:13:49.838Z,102741.97
2023-02-09T06:16:16.283Z,102742.94
2023-02-09T06:18:42.679Z,102745.72
2023-02-09T06:21:09.025Z,102754.63
2023-02-09T06:23:35.537Z,102747.31
2023-02-09T06:26:10.279Z,102739.53
2023-02-09T06:28:37.231Z,102746.00
2023-02-09T06:31:05.274Z,102740.78
2023-02-09T06:33:32.331Z,102732.53
2023-02-09T06:35:58.841Z,102726.22
2023-02-09T06:38:25.226Z,102728.03
2023-02-09T06:40:51.614Z,102726.72
2023-02-09T06:43:18.382Z,102730.94
2023-02-09T06:45:44.686Z,102743.00
2023-02-09T06:48:11.050Z,102736.69
2023-02-09T06:50:38.958Z,102736.78
2023-02-09T06:53:06.102Z,102729.28
2023-02-09T06:55:33.381Z,102734.28
2023-02-09T06:58:00.582Z,102728.06
2023-02-09T07:00:27.343Z,102727.56
2023-02-09T07:02:54.261Z,102738.38
2023-02-09T07:05:21.319Z,102738.13
2023-02-09T07:07:47.738Z,102732.06
2023-02-09T07:10:16.328Z,102739.56
2023-02-09T07:12:45.634Z,102738.13
2023-02-09T07:15:13.784Z,102742.00
2023-02-09T07:17:40.816Z,102741.38
2023-02-09T07:20:09.089Z,102743.69
2023-02-09T07:22:35.897Z,102753.00
2023-02-09T07:25:02.296Z,102762.63
2023-02-09T07:27:28.752Z,102764.06
2023-02-09T07:29:55.096Z,102762.09
2023-02-09T07:32:23.797Z,102769.59
2023-02-09T07:34:50.406Z,102774.78
2023-02-09T07:37:16.791Z,102772.69
2023-02-09T07:39:43.401Z,102781.19
2023-02-09T07:42:09.984Z,102774.13
2023-02-09T07:44:36.323Z,102778.47
2023-02-09T07:47:02.801Z,102782.56
2023-02-09T07:49:29.181Z,102784.47
2023-02-09T07:51:55.543Z,102784.44
2023-02-09T07:54:22.078Z,102786.38
2023-02-09T07:56:48.382Z,102781.75
2023-02-09T07:59:14.856Z,102788.00
2023-02-09T08:01:41.303Z,102784.94
2023-02-09T08:04:07.699Z,102771.72
2023-02-09T08:06:42.579Z,102769.78
2023-02-09T08:09:10.883Z,102771.78
2023-02-09T08:12:09.299Z,102767.53
2023-02-09T08:14:44.191Z,102762.25
2023-02-09T08:17:20.440Z,102768.41
2023-02-09T08:19:52.637Z,102776.03
2023-02-09T08:22:19.795Z,102762.19
2023-02-09T08:24:46.250Z,102748.16
2023-02-09T08:27:12.738Z,102761.53
2023-02-09T08:29:39.440Z,102765.09
2023-02-09T08:32:05.811Z,102785.59
2023-02-09T08:34:32.197Z,102796.22
2023-02-09T08:36:58.666Z,102795.72
2023-02-09T08:39:25.050Z,102780.84
2023-02-09T08:41:51.509Z,102784.84
2023-02-09T08:44:17.850Z,102785.28
2023-02-09T08:46:44.369Z,102780.94
2023-02-09T08:49:10.879Z,102775.59
2023-02-09T08:51:37.327Z,102773.56
2023-02-09T08:54:03.679Z,102777.50
2023-02-09T08:56:30.048Z,102787.28
2023-02-09T08:58:56.403Z,102788.31
2023-02-09T09:01:22.842Z,102790.59
2023-02-09T09:03:49.550Z,102801.16
2023-02-09T09:06:16.097Z,102810.06
2023-02-09T09:08:42.585Z,102816.09
2023-02-09T09:11:12.984Z,102812.75
2023-02-09T09:13:41.247Z,102820.22
2023-02-09T09:16:13.330Z,102822.47
2023-02-09T09:18:39.695Z,102817.97
2023-02-09T09:21:06.145Z,102826.28
2023-02-09T09:23:32.463Z,102821.63
2023-02-09T09:26:03.224Z,102814.84
2023-02-09T09:28:30.960Z,102819.38
2023-02-09T09:30:59.833Z,102823.00
2023-02-09T09:33:26.292Z,102828.63
2023-02-09T09:35:52.610Z,102825.81
2023-02-09T09:38:19.291Z,102831.28
2023-02-09T09:40:46.009Z,102833.38
2023-02-09T09:43:32.387Z,102836.16
2023-02-09T09:45:59.954Z,102837.13
2023-02-09T09:48:35.236Z,102840.94
2023-02-09T09:51:10.384Z,102842.13
2023-02-09T09:53:37.922Z,102843.63
2023-02-09T09:56:07.867Z,102833.34
2023-02-09T09:58:35.294Z,102827.69
2023-02-09T10:01:01.738Z,102829.09
2023-02-09T10:03:28.117Z,102844.88
2023-02-09T10:05:59.814Z,102845.91
2023-02-09T10:08:35.557Z,102845.50
2023-02-09T10:11:09.997Z,102856.28
2023-02-09T10:13:44.179Z,102857.59
2023-02-09T10:16:27.407Z,102859.88
2023-02-09T10:18:59.132Z,102854.56
2023-02-09T10:21:29.363Z,102854.28
2023-02-09T10:24:01.600Z,102848.47
2023-02-09T10:26:31.071Z,102842.78
2023-02-09T10:29:19.021Z,102846.63
2023-02-09T10:31:50.540Z,102841.41
2023-02-09T10:34:21.152Z,102830.03
2023-02-09T10:37:04.012Z,102841.66
2023-02-09T10:39:34.169Z,102837.72
2023-02-09T10:42:32.689Z,102840.94
2023-02-09T10:45:07.037Z,102831.16
2023-02-09T10:47:33.530Z,102826.78
2023-02-09T10:50:14.048Z,102833.75
2023-02-09T10:53:14.575Z,102834.75
2023-02-09T10:55:42.493Z,102838.84
2023-02-09T10:58:20.368Z,102829.88
2023-02-09T11:01:00.593Z,102831.88
2023-02-09T11:03:27.002Z,102830.25
2023-02-09T11:06:16.638Z,102816.13
2023-02-09T11:09:08.290Z,102803.13
2023-02-09T11:11:40.258Z,102790.00
2023-02-09T11:14:12.670Z,102791.97
2023-02-09T11:16:54.473Z,102776.31
2023-02-09T11:19:22.499Z,102779.06
2023-02-09T11:22:13.042Z,102777.78
2023-02-09T11:25:18.480Z,102779.66
2023-02-09T11:27:57.021Z,102781.78
2023-02-09T11:30:51.154Z,102773.00
2023-02-09T11:33:41.517Z,102770.31
2023-02-09T11:36:20.527Z,102774.91
2023-02-09T11:38:56.144Z,102756.59
2023-02-09T11:42:02.495Z,102766.00
2023-02-09T11:44:44.030Z,102766.38
2023-02-09T11:47:19.161Z,102769.22
2023-02-09T11:49:49.172Z,102775.50
2023-02-09T11:52:38.414Z,102780.91
2023-02-09T11:55:45.448Z,102778.25
2023-02-09T11:58:41.204Z,102769.16
2023-02-09T12:01:15.780Z,102763.13
2023-02-09T12:04:02.256Z,102759.41
2023-02-09T12:06:36.306Z,102751.63
2023-02-09T12:09:19.896Z,102749.59
2023-02-09T12:12:09.095Z,102755.00
2023-02-09T12:14:45.336Z,102747.47
2023-02-09T12:17:25.924Z,102748.63
2023-02-09T12:20:00.567Z,102739.19
2023-02-09T12:22:33.040Z,102736.16
2023-02-09T12:25:11.664Z,102734.66
2023-02-09T12:27:41.981Z,102746.63
2023-02-09T12:30:42.671Z,102728.59
2023-02-09T12:33:24.359Z,102716.44
2023-02-09T12:36:08.880Z,102731.44
2023-02-09T12:38:54.466Z,102738.16
2023-02-09T12:41:25.655Z,102730.38
2023-02-09T12:44:10.380Z,102738.16
2023-02-09T12:46:51.865Z,102734.25
2023-02-09T12:49:21.145Z,102732.91
2023-02-09T12:51:50.654Z,102743.88
2023-02-09T12:54:26.160Z,102742.81
2023-02-09T12:56:52.630Z,102739.28
2023-02-09T12:59:22.675Z,102750.56
2023-02-09T13:02:07.616Z,102748.16
2023-02-09T13:04:38.769Z,102753.69
2023-02-09T13:07:15.138Z,102746.91
2023-02-09T13:09:42.828Z,102735.91
2023-02-09T13:12:21.070Z,102725.81
2023-02-09T13:14:50.228Z,102739.06
2023-02-09T13:17:48.722Z,102739.31
2023-02-09T13:20:36.080Z,102743.25
2023-02-09T13:23:30.966Z,102728.72
2023-02-09T13:26:18.459Z,102724.13
2023-02-09T13:28:45.087Z,102721.38
2023-02-09T13:31:35.549Z,102720.22
2023-02-09T13:34:23.828Z,102734.31
2023-02-09T13:37:10.477Z,102725.81
2023-02-09T13:39:38.627Z,102734.84
2023-02-09T13:42:22.611Z,102727.28
2023-02-09T13:44:54.691Z,102724.75
2023-02-09T13:47:21.965Z,102729.69
2023-02-09T13:50:03.985Z,102740.28
2023-02-09T13:52:37.684Z,102741.03
2023-02-09T13:55:31.871Z,102731.97
2023-02-09T13:58:05.226Z,102726.47
2023-02-09T14:00:39.742Z,102728.31
2023-02-09T14:03:13.880Z,102723.22
2023-02-09T14:09:46.444Z,102722.84
2023-02-09T14:12:19.461Z,102718.00
2023-02-09T14:15:14.307Z,102719.53
2023-02-09T14:17:50.819Z,102707.38
2023-02-09T14:20:23.281Z,102708.50
2023-02-09T14:22:58.468Z,102711.38
2023-02-09T14:25:29.731Z,102711.19
2023-02-09T14:27:57.306Z,102706.63
2023-02-09T14:30:32.110Z,102715.25
2023-02-09T14:33:02.494Z,102716.88
2023-02-09T14:35:31.926Z,102718.34
2023-02-09T14:38:00.989Z,102727.88
2023-02-09T14:40:27.643Z,102724.00
2023-02-09T14:43:10.966Z,102721.03
2023-02-09T14:45:43.212Z,102721.56
2023-02-09T14:48:18.007Z,102716.50
2023-02-09T14:50:44.566Z,102718.59
2023-02-09T14:53:14.115Z,102719.50
2023-02-09T14:55:40.595Z,102721.38
2023-02-09T14:58:11.624Z,102724.97
2023-02-09T15:00:38.151Z,102727.47
2023-02-09T15:03:04.605Z,102719.16
2023-02-09T15:05:31.000Z,102721.75
2023-02-09T15:08:05.735Z,102719.13
2023-02-09T15:10:44.028Z,102730.03
2023-02-09T15:13:13.111Z,102731.41
2023-02-09T15:15:39.783Z,102720.91
2023-02-09T15:18:07.188Z,102715.72
2023-02-09T15:20:34.012Z,102730.06
2023-02-09T15:23:00.780Z,102724.34
2023-02-09T15:25:28.787Z,102725.72
2023-02-09T15:27:59.980Z,102725.38
2023-02-09T15:30:30.598Z,102735.53
2023-02-09T15:32:57.067Z,102741.59
2023-02-09T15:35:26.268Z,102736.06
2023-02-09T15:37:59.617Z,102745.41
2023-02-09T15:40:52.823Z,102746.44
2023-02-09T15:43:40.100Z,102749.16
2023-02-09T15:46:26.522Z,102753.78
2023-02-09T15:48:54.124Z,102742.00
2023-02-09T15:51:22.019Z,102758.56
2023-02-09T15:53:48.960Z,102761.44
2023-02-09T15:56:15.933Z,102759.28
2023-02-09T15:58:45.793Z,102764.03
2023-02-09T16:01:15.556Z,102761.47
2023-02-09T16:03:42.909Z,102761.34
2023-02-09T16:06:22.113Z,102762.50
2023-02-09T16:08:48.942Z,102767.59
2023-02-09T16:11:21.758Z,102761.69
2023-02-09T16:13:49.075Z,102762.69
2023-02-09T16:16:17.902Z,102765.78
2023-02-09T16:18:45.692Z,102769.19
2023-02-09T16:21:22.142Z,102774.09
2023-02-09T16:23:48.797Z,102775.59
2023-02-09T16:26:15.224Z,102782.03
2023-02-09T16:28:41.684Z,102790.50
2023-02-09T16:31:10.389Z,102784.75
2023-02-09T16:33:38.747Z,102791.50
2023-02-09T16:36:13.652Z,102792.16
2023-02-09T16:38:40.121Z,102803.44
2023-02-09T16:41:26.662Z,102808.47
2023-02-09T16:43:53.126Z,102809.31
2023-02-09T16:46:19.531Z,102815.66
2023-02-09T16:48:46.600Z,102818.34
2023-02-09T16:51:14.768Z,102821.84
2023-02-09T16:53:48.108Z,102829.25
2023-02-09T16:56:15.627Z,102829.53
2023-02-09T16:58:42.953Z,102844.63
2023-02-09T17:01:19.496Z,102835.00
2023-02-09T17:03:54.160Z,102830.25
2023-02-09T17:06:23.586Z,102837.28
2023-02-09T17:08:50.960Z,102838.44
2023-02-09T17:11:23.137Z,102843.94
2023-02-09T17:13:50.057Z,102844.03
2023-02-09T17:16:18.809Z,102858.28
2023-02-09T17:18:47.145Z,102859.22
2023-02-09T17:21:28.519Z,102868.69
2023-02-09T17:23:57.272Z,102871.31
2023-02-09T17:26:24.736Z,102872.41
2023-02-09T17:28:51.740Z,102880.47
2023-02-09T17:31:27.711Z,102885.31
2023-02-09T17:33:56.735Z,102883.84
2023-02-09T17:36:28.444Z,102886.59
2023-02-09T17:38:57.380Z,102889.78
2023-02-09T17:41:26.771Z,102893.22
2023-02-09T17:43:53.584Z,102912.91
2023-02-09T17:46:21.195Z,102915.88
2023-02-09T17:48:48.490Z,102914.41
2023-02-09T17:51:23.407Z,102914.56
2023-02-09T17:53:49.901Z,102919.44
2023-02-09T17:56:16.878Z,102920.81
2023-02-09T17:58:44.634Z,102922.13
2023-02-09T18:01:26.339Z,102914.38
2023-02-09T18:03:55.490Z,102917.38
2023-02-09T18:06:27.513Z,102920.22
2023-02-09T18:08:53.898Z,102930.00
2023-02-09T18:11:20.262Z,102928.91
2023-02-09T18:13:46.676Z,102928.59
2023-02-09T18:16:13.586Z,102931.41
2023-02-09T18:18:40.071Z,102937.66
2023-02-09T18:21:09.002Z,102932.00
2023-02-09T18:23:35.345Z,102931.44
2023-02-09T18:26:01.756Z,102932.56
2023-02-09T18:28:28.244Z,102939.22
2023-02-09T18:30:54.790Z,102940.22
2023-02-09T18:33:21.116Z,102942.47
2023-02-09T18:35:47.842Z,102945.59
2023-02-09T18:38:15.148Z,102952.06
2023-02-09T18:40:41.540Z,102952.94
2023-02-09T18:43:08.036Z,102943.03
2023-02-09T18:45:34.734Z,102947.25
2023-02-09T18:48:01.319Z,102946.28
2023-02-09T18:50:30.482Z,102946.53
2023-02-09T18:53:00.444Z,102954.88
2023-02-09T18:55:30.630Z,102953.47
2023-02-09T18:57:59.570Z,102952.59
2023-02-09T19:00:26.630Z,102949.59
2023-02-09T19:02:57.376Z,102953.00
2023-02-09T19:05:26.241Z,102957.06
2023-02-09T19:07:53.174Z,102962.97
2023-02-09T19:10:20.793Z,102953.97
2023-02-09T19:12:47.328Z,102964.41
2023-02-09T19:15:18.755Z,102958.19
2023-02-09T19:17:45.420Z,102950.28
2023-02-09T19:20:17.669Z,102962.41
2023-02-09T19:22:44.518Z,102973.06
2023-02-09T19:25:10.938Z,102980.94
2023-02-09T19:27:37.447Z,102981.81
2023-02-09T19:30:04.240Z,102981.81
2023-02-09T19:32:30.648Z,102984.97
2023-02-09T19:34:57.195Z,102988.22
2023-02-09T19:37:24.087Z,102992.13
2023-02-09T19:40:00.329Z,102985.25
2023-02-09T19:42:29.618Z,102984.88
2023-02-09T19:44:56.262Z,102987.59
2023-02-09T19:47:25.825Z,102985.31
2023-02-09T19:49:57.911Z,102990.13
2023-02-09T19:52:25.781Z,102995.81
2023-02-09T19:54:52.311Z,103002.00
2023-02-09T19:57:20.870Z,103001.13
2023-02-09T19:59:47.665Z,102987.00
2023-02-09T20:02:15.471Z,102996.00
2023-02-09T20:04:43.113Z,102994.66
2023-02-09T20:07:13.958Z,103006.25
2023-02-09T20:09:40.388Z,102999.25
2023-02-09T20:12:06.859Z,103004.75
2023-02-09T20:14:33.665Z,103002.63
2023-02-09T20:17:00.426Z,102999.09
2023-02-09T20:19:27.114Z,103002.78
2023-02-09T20:21:53.590Z,103005.72
2023-02-09T20:24:20.084Z,103005.19
2023-02-09T20:26:46.748Z,103011.38
2023-02-09T20:29:13.754Z,103019.44
2023-02-09T20:31:41.398Z,103021.25
2023-02-09T20:34:11.436Z,103017.03
2023-02-09T20:36:39.754Z,103016.22
2023-02-09T20:39:09.908Z,103019.16
2023-02-09T20:41:36.356Z,103020.88
2023-02-09T20:44:21.478Z,103025.53
2023-02-09T20:46:56.888Z,103037.38
2023-02-09T20:49:36.213Z,103040.22
2023-02-09T20:52:02.620Z,103039.34
2023-02-09T20:54:31.669Z,103042.34
2023-02-09T20:56:58.893Z,103048.44
2023-02-09T20:59:25.393Z,103043.06
2023-02-09T21:01:52.302Z,103046.44
2023-02-09T21:04:18.716Z,103049.53
2023-02-09T21:06:45.415Z,103049.53
2023-02-09T21:09:14.566Z,103047.88
2023-02-09T21:11:42.084Z,103045.03
2023-02-09T21:14:13.475Z,103049.81
2023-02-09T21:16:55.289Z,103049.25
2023-02-09T21:19:23.765Z,103042.22
2023-02-09T21:21:50.459Z,103055.31
2023-02-09T21:24:19.104Z,103061.13
2023-02-09T21:26:45.882Z,103057.75
2023-02-09T21:29:13.727Z,103056.19
2023-02-09T21:31:40.756Z,103064.25
2023-02-09T21:34:07.300Z,103056.34
2023-02-09T21:36:33.723Z,103059.56
2023-02-09T21:39:00.754Z,103051.22
2023-02-09T21:41:45.948Z,103052.06
2023-02-09T21:44:12.968Z,103041.06
2023-02-09T21:46:39.343Z,103050.63
2023-02-09T21:49:06.268Z,103054.31
2023-02-09T21:51:32.615Z,103048.81
2023-02-09T21:53:59.313Z,103049.22
2023-02-09T21:56:26.085Z,103050.34
2023-02-09T21:58:52.691Z,103052.91
2023-02-09T22:01:19.139Z,103037.94
2023-02-09T22:03:49.502Z,103040.78
2023-02-09T22:06:15.917Z,103035.69
2023-02-09T22:08:42.497Z,103043.88
2023-02-09T22:11:08.926Z,103045.41
2023-02-09T22:13:35.404Z,103037.66
2023-02-09T22:16:08.315Z,103038.63
2023-02-09T22:18:34.969Z,103034.97
2023-02-09T22:21:01.761Z,103039.91
2023-02-09T22:23:28.320Z,103039.19
2023-02-09T22:25:59.658Z,103040.91
2023-02-09T22:28:26.582Z,103039.75
2023-02-09T22:30:53.232Z,103038.88
2023-02-09T22:33:20.681Z,103039.03
2023-02-09T22:35:48.478Z,103043.28
2023-02-09T22:38:15.185Z,103038.88
2023-02-09T22:40:41.656Z,103050.06
2023-02-09T22:43:08.059Z,103049.06
2023-02-09T22:45:34.408Z,103045.56
2023-02-09T22:48:00.762Z,103045.56
2023-02-09T22:50:27.152Z,103054.59
2023-02-09T22:52:53.590Z,103052.50
2023-02-09T22:55:19.956Z,103053.66
2023-02-09T22:57:46.280Z,103052.22
2023-02-09T23:00:15.164Z,103059.72
2023-02-09T23:02:41.579Z,103064.78
2023-02-09T23:05:08.201Z,103060.44
2023-02-09T23:07:34.535Z,103063.38
2023-02-09T23:10:00.888Z,103063.38
2023-02-09T23:12:27.238Z,103065.66
2023-02-09T23:14:54.782Z,103076.66
2023-02-09T23:17:21.303Z,103074.13
2023-02-09T23:19:47.767Z,103066.38
2023-02-09T23:22:14.159Z,103060.00
2023-02-09T23:24:40.706Z,103062.25
2023-02-09T23:27:07.171Z,103061.09
2023-02-09T23:29:33.641Z,103065.47
2023-02-09T23:31:59.987Z,103067.06
2023-02-09T23:34:26.373Z,103072.56
2023-02-09T23:36:52.912Z,103075.13
2023-02-09T23:39:22.308Z,103074.13
2023-02-09T23:41:49.281Z,103066.50
2023-02-09T23:44:15.856Z,103070.16
2023-02-09T23:46:42.408Z,103076.66
2023-02-09T23:49:08.777Z,103082.19
2023-02-09T23:51:35.828Z,103082.63
2023-02-09T23:54:04.813Z,103078.94
2023-02-09T23:56:36.894Z,103085.44
2023-02-09T23:59:05.667Z,103080.09
